Time,TemperatureF,DewpointF,PressureIn,WindDirection,WindDirectionDegrees,WindSpeedMPH,WindSpeedGustMPH,Humidity,HourlyPrecipIn,Conditions,Clouds,dailyrainin,SoftwareType,DateUTC
2013-08-16 00:28:00,67.0,67.0,30.09,SW,224,0.0,1.0,98,0.00,,,0.00,weatherlink.com 1.10,2013-08-16 04:28:00,
2013-08-16 00:44:00,66.9,66.0,30.09,North,358,0.0,1.0,98,0.00,,,0.00,weatherlink.com 1.10,2013-08-16 04:44:00,
2013-08-16 00:59:00,66.8,67.0,30.08,SE,143,0.0,2.0,99,0.00,,,0.00,weatherlink.com 1.10,2013-08-16 04:59:00,
2013-08-16 01:14:00,66.8,67.0,30.08,SE,143,0.0,0.0,99,0.00,,,0.00,weatherlink.com 1.10,2013-08-16 05:14:00,
2013-08-16 01:29:00,66.8,67.0,30.08,ESE,108,0.0,0.0,99,0.00,,,0.00,weatherlink.com 1.10,2013-08-16 05:29:00,
2013-08-16 01:44:00,66.8,67.0,30.08,NW,310,0.0,1.0,99,0.00,,,0.00,weatherlink.com 1.10,2013-08-16 05:44:00,
2013-08-16 01:59:00,66.9,67.0,30.07,ESE,123,0.0,1.0,99,0.00,,,0.00,weatherlink.com 1.10,2013-08-16 05:59:00,
2013-08-16 02:14:00,66.9,67.0,30.06,SW,217,0.0,1.0,99,0.00,,,0.00,weatherlink.com 1.10,2013-08-16 06:14:00,
2013-08-16 02:29:00,66.8,67.0,30.05,NW,304,0.0,1.0,99,0.00,,,0.00,weatherlink.com 1.10,2013-08-16 06:29:00,
2013-08-16 02:44:00,66.7,66.0,30.05,NE,55,0.0,1.0,99,0.00,,,0.00,weatherlink.com 1.10,2013-08-16 06:44:00,
2013-08-16 02:59:00,66.8,67.0,30.06,NW,312,0.0,0.0,99,0.00,,,0.00,weatherlink.com 1.10,2013-08-16 06:59:00,
2013-08-16 03:14:00,66.8,67.0,30.06,SW,226,0.0,0.0,99,0.00,,,0.00,weatherlink.com 1.10,2013-08-16 07:14:00,
2013-08-16 03:29:00,66.8,67.0,30.06,SW,225,0.0,0.0,99,0.00,,,0.00,weatherlink.com 1.10,2013-08-16 07:29:00,
2013-08-16 03:44:00,66.8,67.0,30.05,ESE,103,0.0,2.0,99,0.00,,,0.00,weatherlink.com 1.10,2013-08-16 07:44:00,
2013-08-16 03:59:00,66.7,66.0,30.05,SSE,161,1.0,1.0,99,0.00,,,0.00,weatherlink.com 1.10,2013-08-16 07:59:00,
2013-08-16 04:14:00,66.5,66.0,30.05,SE,124,0.0,3.0,98,0.00,,,0.00,weatherlink.com 1.10,2013-08-16 08:14:00,
2013-08-16 04:29:00,66.4,66.0,30.05,NE,54,0.0,1.0,98,0.00,,,0.00,weatherlink.com 1.10,2013-08-16 08:29:00,
2013-08-16 04:44:00,66.3,66.0,30.05,ESE,114,0.0,1.0,98,0.00,,,0.00,weatherlink.com 1.10,2013-08-16 08:44:00,
2013-08-16 04:59:00,66.3,66.0,30.05,ESE,114,0.0,1.0,98,0.00,,,0.00,weatherlink.com 1.10,2013-08-16 08:59:00,
2013-08-16 05:14:00,66.2,66.0,30.05,NW,317,0.0,1.0,98,0.00,,,0.00,weatherlink.com 1.10,2013-08-16 09:14:00,
2013-08-16 05:29:00,66.1,66.0,30.05,WSW,247,0.0,1.0,98,0.00,,,0.00,weatherlink.com 1.10,2013-08-16 09:29:00,
2013-08-16 05:44:00,66.0,66.0,30.06,ESE,123,0.0,1.0,99,0.00,,,0.00,weatherlink.com 1.10,2013-08-16 09:44:00,
2013-08-16 05:59:00,66.0,66.0,30.06,SE,131,0.0,1.0,99,0.00,,,0.00,weatherlink.com 1.10,2013-08-16 09:59:00,
2013-08-16 06:14:00,65.9,66.0,30.07,SW,234,0.0,1.0,99,0.00,,,0.00,weatherlink.com 1.10,2013-08-16 10:14:00,
2013-08-16 06:29:00,66.1,66.0,30.07,SW,233,0.0,1.0,99,0.00,,,0.00,weatherlink.com 1.10,2013-08-16 10:29:00,
2013-08-16 06:44:00,66.2,66.0,30.07,SW,233,0.0,0.0,99,0.00,,,0.00,weatherlink.com 1.10,2013-08-16 10:44:00,
2013-08-16 06:59:00,66.3,66.0,30.08,SW,233,0.0,0.0,99,0.00,,,0.00,weatherlink.com 1.10,2013-08-16 10:59:00,
2013-08-16 07:14:00,66.6,66.0,30.09,SW,233,0.0,1.0,99,0.00,,,0.00,weatherlink.com 1.10,2013-08-16 11:14:00,
2013-08-16 07:29:00,66.8,67.0,30.08,West,272,0.0,1.0,99,0.00,,,0.00,weatherlink.com 1.10,2013-08-16 11:29:00,
2013-08-16 07:44:00,67.2,67.0,30.08,East,92,0.0,1.0,98,0.00,,,0.00,weatherlink.com 1.10,2013-08-16 11:44:00,
2013-08-16 07:59:00,67.5,67.0,30.08,SW,224,0.0,1.0,98,0.00,,,0.00,weatherlink.com 1.10,2013-08-16 11:59:00,
2013-08-16 08:14:00,67.8,67.0,30.08,SSE,149,0.0,2.0,98,0.00,,,0.00,weatherlink.com 1.10,2013-08-16 12:14:00,
2013-08-16 08:29:00,68.4,68.0,30.08,South,174,0.0,1.0,97,0.00,,,0.00,weatherlink.com 1.10,2013-08-16 12:29:00,
2013-08-16 08:44:00,69.2,68.0,30.08,West,264,0.0,3.0,96,0.00,,,0.00,weatherlink.com 1.10,2013-08-16 12:44:00,
2013-08-16 08:59:00,69.9,69.0,30.09,SE,141,0.0,2.0,96,0.00,,,0.00,weatherlink.com 1.10,2013-08-16 12:59:00,
2013-08-16 09:14:00,70.4,69.0,30.09,SSE,162,0.0,2.0,95,0.00,,,0.00,weatherlink.com 1.10,2013-08-16 13:14:00,
2013-08-16 09:29:00,70.7,69.0,30.09,SE,131,1.0,2.0,94,0.00,,,0.00,weatherlink.com 1.10,2013-08-16 13:29:00,
2013-08-16 09:44:00,71.1,70.0,30.09,SW,225,0.0,1.0,95,0.00,,,0.00,weatherlink.com 1.10,2013-08-16 13:44:00,
2013-08-16 09:59:00,71.5,70.0,30.09,SE,138,1.0,2.0,94,0.00,,,0.00,weatherlink.com 1.10,2013-08-16 13:59:00,
2013-08-16 10:14:00,71.8,70.0,30.09,NNW,330,1.0,3.0,94,0.00,,,0.00,weatherlink.com 1.10,2013-08-16 14:14:00,
2013-08-16 10:29:00,72.7,71.0,30.09,SSE,158,0.0,3.0,93,0.00,,,0.00,weatherlink.com 1.10,2013-08-16 14:29:00,
2013-08-16 10:44:00,72.8,71.0,30.09,SE,141,0.0,2.0,93,0.00,,,0.00,weatherlink.com 1.10,2013-08-16 14:44:00,
2013-08-16 10:59:00,72.2,71.0,30.10,ENE,74,0.0,1.0,95,0.09,,,0.09,weatherlink.com 1.10,2013-08-16 14:59:00,
2013-08-16 11:14:00,71.4,71.0,30.10,SE,131,0.0,1.0,97,0.20,,,0.20,weatherlink.com 1.10,2013-08-16 15:14:00,
2013-08-16 11:29:00,71.9,71.0,30.10,SE,133,0.0,1.0,98,0.23,,,0.23,weatherlink.com 1.10,2013-08-16 15:29:00,
2013-08-16 11:44:00,72.1,71.0,30.10,SE,133,1.0,1.0,97,0.23,,,0.23,weatherlink.com 1.10,2013-08-16 15:44:00,
2013-08-16 11:59:00,72.4,72.0,30.09,ESE,122,0.0,2.0,98,0.13,,,0.23,weatherlink.com 1.10,2013-08-16 15:59:00,
2013-08-16 12:14:00,72.8,72.0,30.09,SE,144,1.0,2.0,97,0.03,,,0.23,weatherlink.com 1.10,2013-08-16 16:14:00,
2013-08-16 12:30:00,73.9,73.0,30.08,SSE,156,1.0,3.0,96,0.00,,,0.23,weatherlink.com 1.10,2013-08-16 16:30:00,
2013-08-16 12:45:00,74.4,73.0,30.08,SSW,206,0.0,4.0,94,0.00,,,0.23,weatherlink.com 1.10,2013-08-16 16:45:00,
2013-08-16 13:00:00,74.2,72.0,30.07,SE,129,2.0,4.0,94,0.00,,,0.23,weatherlink.com 1.10,2013-08-16 17:00:00,
2013-08-16 13:15:00,74.8,73.0,30.07,WNW,302,0.0,3.0,93,0.00,,,0.23,weatherlink.com 1.10,2013-08-16 17:15:00,
2013-08-16 13:30:00,74.2,72.0,30.07,ESE,116,0.0,2.0,94,0.00,,,0.23,weatherlink.com 1.10,2013-08-16 17:30:00,
2013-08-16 13:45:00,74.4,73.0,30.06,SE,136,1.0,3.0,95,0.00,,,0.23,weatherlink.com 1.10,2013-08-16 17:45:00,
2013-08-16 14:00:00,74.6,73.0,30.06,West,262,0.0,3.0,95,0.00,,,0.23,weatherlink.com 1.10,2013-08-16 18:00:00,
2013-08-16 14:15:00,74.9,73.0,30.05,SSE,150,1.0,5.0,93,0.00,,,0.23,weatherlink.com 1.10,2013-08-16 18:15:00,
2013-08-16 14:30:00,75.1,73.0,30.05,SE,136,0.0,4.0,92,0.00,,,0.23,weatherlink.com 1.10,2013-08-16 18:30:00,
2013-08-16 14:45:00,74.6,73.0,30.04,SE,141,2.0,4.0,93,0.00,,,0.23,weatherlink.com 1.10,2013-08-16 18:45:00,
2013-08-16 15:00:00,74.6,73.0,30.03,NW,309,0.0,4.0,94,0.00,,,0.23,weatherlink.com 1.10,2013-08-16 19:00:00,
2013-08-16 16:28:00,73.9,73.0,30.05,NE,47,3.0,5.0,97,0.01,,,1.13,weatherlink.com 1.10,2013-08-16 20:28:00,
2013-08-16 16:45:00,75.5,74.0,30.05,North,11,0.0,4.0,94,0.00,,,1.13,weatherlink.com 1.10,2013-08-16 20:45:00,
2013-08-16 17:00:00,75.5,73.0,30.05,SSE,148,0.0,8.0,91,0.00,,,1.13,weatherlink.com 1.10,2013-08-16 21:00:00,
2013-08-16 17:15:00,75.4,73.0,30.05,NE,34,1.0,4.0,91,0.00,,,1.13,weatherlink.com 1.10,2013-08-16 21:15:00,
2013-08-16 17:30:00,75.1,72.0,30.06,SW,232,0.0,4.0,91,0.00,,,1.13,weatherlink.com 1.10,2013-08-16 21:30:00,
2013-08-16 17:45:00,74.8,72.0,30.06,East,91,2.0,4.0,92,0.00,,,1.13,weatherlink.com 1.10,2013-08-16 21:45:00,
2013-08-16 18:00:00,74.7,72.0,30.05,WSW,246,0.0,7.0,92,0.00,,,1.13,weatherlink.com 1.10,2013-08-16 22:00:00,
2013-08-16 18:15:00,74.3,72.0,30.05,SE,128,0.0,4.0,92,0.00,,,1.13,weatherlink.com 1.10,2013-08-16 22:15:00,
2013-08-16 18:30:00,74.2,72.0,30.05,SE,143,1.0,5.0,92,0.00,,,1.13,weatherlink.com 1.10,2013-08-16 22:30:00,
2013-08-16 18:45:00,73.8,72.0,30.06,NW,318,1.0,3.0,93,0.00,,,1.13,weatherlink.com 1.10,2013-08-16 22:45:00,
2013-08-16 19:00:00,73.6,72.0,30.06,SE,145,0.0,1.0,93,0.00,,,1.13,weatherlink.com 1.10,2013-08-16 23:00:00,
2013-08-16 19:15:00,73.3,72.0,30.07,East,91,0.0,1.0,95,0.00,,,1.13,weatherlink.com 1.10,2013-08-16 23:15:00,
2013-08-16 19:30:00,73.0,71.0,30.07,ESE,122,1.0,2.0,94,0.00,,,1.13,weatherlink.com 1.10,2013-08-16 23:30:00,
2013-08-16 19:45:00,72.8,71.0,30.06,SE,135,0.0,0.0,95,0.00,,,1.13,weatherlink.com 1.10,2013-08-16 23:45:00,
2013-08-16 20:00:00,72.4,71.0,30.06,SE,131,0.0,2.0,95,0.00,,,1.13,weatherlink.com 1.10,2013-08-17 00:00:00,
2013-08-16 20:15:00,71.9,71.0,30.07,SE,140,0.0,1.0,95,0.00,,,1.13,weatherlink.com 1.10,2013-08-17 00:15:00,
2013-08-16 20:30:00,71.6,70.0,30.07,ESE,115,0.0,1.0,95,0.00,,,1.13,weatherlink.com 1.10,2013-08-17 00:30:00,
2013-08-16 20:45:00,71.5,70.0,30.07,SE,142,0.0,1.0,96,0.00,,,1.13,weatherlink.com 1.10,2013-08-17 00:45:00,
2013-08-16 21:00:00,71.3,70.0,30.07,SE,127,0.0,1.0,96,0.00,,,1.13,weatherlink.com 1.10,2013-08-17 01:00:00,
2013-08-16 21:15:00,71.2,70.0,30.09,WSW,242,0.0,1.0,97,0.00,,,1.13,weatherlink.com 1.10,2013-08-17 01:15:00,
2013-08-16 21:30:00,71.2,70.0,30.09,WNW,284,0.0,1.0,97,0.00,,,1.13,weatherlink.com 1.10,2013-08-17 01:30:00,
2013-08-16 21:45:00,71.1,70.0,30.10,WSW,255,0.0,0.0,97,0.00,,,1.13,weatherlink.com 1.10,2013-08-17 01:45:00,
2013-08-16 22:00:00,70.9,70.0,30.11,West,269,0.0,1.0,97,0.00,,,1.13,weatherlink.com 1.10,2013-08-17 02:00:00,
2013-08-16 22:15:00,70.8,70.0,30.10,WSW,243,0.0,1.0,97,0.00,,,1.13,weatherlink.com 1.10,2013-08-17 02:15:00,
2013-08-16 22:30:00,70.6,70.0,30.11,West,280,0.0,1.0,97,0.00,,,1.13,weatherlink.com 1.10,2013-08-17 02:30:00,
2013-08-16 22:45:00,70.5,70.0,30.10,SE,142,0.0,2.0,98,0.00,,,1.13,weatherlink.com 1.10,2013-08-17 02:45:00,
2013-08-16 23:00:00,70.5,70.0,30.10,SE,143,0.0,0.0,98,0.00,,,1.13,weatherlink.com 1.10,2013-08-17 03:00:00,
2013-08-16 23:15:00,70.4,70.0,30.10,SE,139,0.0,1.0,98,0.00,,,1.13,weatherlink.com 1.10,2013-08-17 03:15:00,
2013-08-16 23:30:00,70.4,70.0,30.09,SSW,213,0.0,1.0,98,0.00,,,1.13,weatherlink.com 1.10,2013-08-17 03:30:00,
2013-08-16 23:45:00,70.3,70.0,30.10,NNE,20,0.0,1.0,98,0.00,,,1.13,weatherlink.com 1.10,2013-08-17 03:45:00,